Coffey, Missouri
Current Conditions -  °F | °C
As of 2:53 PM on Friday 19 Dec 2014 (Local Time) from KLWD Reporting Station
Overcast Overcast  
Wind Chill: 26°   Ceiling: 800
Heat Index: 32°   Visibility: 7mi
Dew Point: 29°   Wind: 7mph
Humidity: 88%   Direction: 190°S
Pressure: 30.2"   Gusts: NA
Location:  40.11°N, 94.01°W
Report Text: KLWD 192053Z AUTO 19006KT 7SM OVC008 00/M02 A3020 RMK AO2 SLP241 T00001017 56012
Loading
Personal Weather Stations






























Interactive Weather Map New forecast layout! Learn more

10-Day Weather Forecast

Advertisements
Track Severe Weather on mobile